createdAt,value
2018-03-03T00:00:24.148Z,-2.60
2018-03-03T00:02:52.408Z,-2.60
2018-03-03T00:05:20.668Z,-2.60
2018-03-03T00:07:48.897Z,-2.60
2018-03-03T00:10:17.143Z,-2.60
2018-03-03T00:12:45.407Z,-2.60
2018-03-03T00:15:13.656Z,-2.60
2018-03-03T00:17:41.887Z,-2.60
2018-03-03T00:20:10.141Z,-2.60
2018-03-03T00:22:41.173Z,-2.60
2018-03-03T00:25:09.454Z,-2.70
2018-03-03T00:27:37.734Z,-2.80
2018-03-03T00:30:05.993Z,-2.80
2018-03-03T00:32:34.221Z,-2.80
2018-03-03T00:35:02.464Z,-2.80
2018-03-03T00:37:30.731Z,-2.80
2018-03-03T00:39:58.987Z,-2.70
2018-03-03T00:42:27.241Z,-2.70
2018-03-03T00:44:56.255Z,-2.80
2018-03-03T00:47:24.510Z,-2.80
2018-03-03T00:49:53.514Z,-2.80
2018-03-03T00:52:22.512Z,-2.80
2018-03-03T00:54:50.770Z,-2.90
2018-03-03T00:57:19.774Z,-2.90
2018-03-03T00:59:48.800Z,-2.90
2018-03-03T01:02:17.043Z,-3.00
2018-03-03T01:04:46.056Z,-3.00
2018-03-03T01:07:14.352Z,-3.10
2018-03-03T01:09:42.618Z,-3.00
2018-03-03T01:12:10.849Z,-3.10
2018-03-03T01:14:39.088Z,-3.10
2018-03-03T01:17:07.362Z,-3.20
2018-03-03T01:19:35.631Z,-3.10
2018-03-03T01:22:03.866Z,-3.10
2018-03-03T01:24:32.882Z,-3.10
2018-03-03T01:27:01.164Z,-3.20
2018-03-03T01:29:29.419Z,-3.10
2018-03-03T01:31:58.663Z,-3.10
2018-03-03T01:34:26.861Z,-3.10
2018-03-03T01:36:55.107Z,-3.00
2018-03-03T01:39:23.397Z,-3.10
2018-03-03T01:41:51.637Z,-3.10
2018-03-03T01:44:19.862Z,-3.10
2018-03-03T01:46:48.105Z,-3.10
2018-03-03T01:49:16.350Z,-3.20
2018-03-03T01:51:45.357Z,-3.30
2018-03-03T01:54:13.577Z,-3.30
2018-03-03T01:56:41.842Z,-3.30
2018-03-03T01:59:10.109Z,-3.30
2018-03-03T02:01:38.377Z,-3.30
2018-03-03T02:04:06.649Z,-3.30
2018-03-03T02:06:34.899Z,-3.30
2018-03-03T02:09:03.911Z,-3.30
2018-03-03T02:11:32.143Z,-3.40
2018-03-03T02:14:00.424Z,-3.30
2018-03-03T02:16:29.173Z,-3.30
2018-03-03T02:18:57.426Z,-3.20
2018-03-03T02:21:25.692Z,-3.20
2018-03-03T02:23:53.940Z,-3.20
2018-03-03T02:26:22.188Z,-3.20
2018-03-03T02:28:50.409Z,-3.30
2018-03-03T02:31:19.683Z,-3.30
2018-03-03T02:33:47.877Z,-3.40
2018-03-03T02:36:16.902Z,-3.30
2018-03-03T02:38:45.186Z,-3.30
2018-03-03T02:41:13.438Z,-3.30
2018-03-03T02:43:42.473Z,-3.30
2018-03-03T02:46:10.712Z,-3.40
2018-03-03T02:48:38.955Z,-3.30
2018-03-03T02:51:07.183Z,-3.40
2018-03-03T02:53:35.430Z,-3.40
2018-03-03T02:56:04.466Z,-3.40
2018-03-03T02:58:32.713Z,-3.50
2018-03-03T03:01:00.962Z,-3.40
2018-03-03T03:03:29.978Z,-3.50
2018-03-03T03:05:58.987Z,-3.50
2018-03-03T03:08:27.208Z,-3.50
2018-03-03T03:10:55.473Z,-3.50
2018-03-03T03:13:23.762Z,-3.60
2018-03-03T03:15:52.021Z,-3.60
2018-03-03T03:18:20.245Z,-3.60
2018-03-03T03:20:49.247Z,-3.70
2018-03-03T03:23:17.503Z,-3.70
2018-03-03T03:25:46.503Z,-3.70
2018-03-03T03:28:15.506Z,-3.70
2018-03-03T03:30:44.523Z,-3.70
2018-03-03T03:33:12.800Z,-3.70
2018-03-03T03:35:41.032Z,-3.70
2018-03-03T03:38:09.287Z,-3.60
2018-03-03T03:40:37.522Z,-3.70
2018-03-03T03:43:05.770Z,-3.70
2018-03-03T03:45:34.782Z,-3.70
2018-03-03T03:48:03.059Z,-3.80
2018-03-03T03:50:31.286Z,-3.80
2018-03-03T03:52:59.534Z,-3.80
2018-03-03T03:55:27.805Z,-3.80
2018-03-03T03:57:56.083Z,-3.80
2018-03-03T04:00:24.390Z,-3.90
2018-03-03T04:02:52.633Z,-4.00
2018-03-03T04:05:20.870Z,-4.00
2018-03-03T04:07:49.906Z,-4.10
2018-03-03T04:10:18.277Z,-4.20
2018-03-03T04:12:46.555Z,-4.20
2018-03-03T04:15:14.791Z,-4.10
2018-03-03T04:17:43.030Z,-4.10
2018-03-03T04:20:11.311Z,-4.10
2018-03-03T04:22:39.529Z,-4.10
2018-03-03T04:25:08.566Z,-4.00
2018-03-03T04:27:36.814Z,-4.10
2018-03-03T04:30:05.823Z,-4.10
2018-03-03T04:32:34.090Z,-4.10
2018-03-03T04:35:02.334Z,-4.10
2018-03-03T04:37:30.584Z,-4.10
2018-03-03T04:39:58.839Z,-4.10
2018-03-03T04:42:27.074Z,-4.10
2018-03-03T04:44:56.082Z,-4.10
2018-03-03T04:47:24.325Z,-4.20
2018-03-03T04:49:52.570Z,-4.20
2018-03-03T04:52:20.805Z,-4.20
2018-03-03T04:54:49.056Z,-4.30
2018-03-03T04:57:18.818Z,-4.30
2018-03-03T05:02:56.488Z,-4.30
2018-03-03T05:05:37.608Z,-4.40
2018-03-03T05:11:16.919Z,-4.40
2018-03-03T05:13:45.168Z,-4.40
2018-03-03T05:16:19.120Z,-4.40
2018-03-03T05:22:05.544Z,-4.50
2018-03-03T05:24:40.268Z,-4.60
2018-03-03T05:27:14.893Z,-4.50
2018-03-03T05:32:50.254Z,-4.50
2018-03-03T05:35:39.995Z,-4.40
2018-03-03T05:38:10.671Z,-4.50
2018-03-03T05:43:49.978Z,-4.30
2018-03-03T05:46:22.268Z,-4.30
2018-03-03T05:51:59.057Z,-4.40
2018-03-03T05:54:33.100Z,-4.50
2018-03-03T06:00:19.394Z,-4.60
2018-03-03T06:03:04.491Z,-4.70
2018-03-03T06:05:35.200Z,-4.70
2018-03-03T06:08:09.232Z,-4.70
2018-03-03T06:10:43.691Z,-4.60
2018-03-03T06:13:11.926Z,-4.70
2018-03-03T06:15:40.193Z,-4.50
2018-03-03T06:18:08.443Z,-4.50
2018-03-03T06:20:36.906Z,-4.60
2018-03-03T06:23:05.172Z,-4.70
2018-03-03T06:25:33.362Z,-4.70
2018-03-03T06:28:01.641Z,-4.70
2018-03-03T06:30:29.940Z,-4.60
2018-03-03T06:32:58.127Z,-4.50
2018-03-03T06:35:26.358Z,-4.50
2018-03-03T06:37:54.629Z,-4.50
2018-03-03T06:40:22.897Z,-4.50
2018-03-03T06:42:52.638Z,-4.30
2018-03-03T06:45:20.878Z,-4.30
2018-03-03T06:47:49.901Z,-4.30
2018-03-03T06:50:18.157Z,-4.40
2018-03-03T06:52:46.405Z,-4.30
2018-03-03T06:55:14.619Z,-4.20
2018-03-03T06:57:42.941Z,-4.20
2018-03-03T07:00:11.161Z,-4.20
2018-03-03T07:02:39.396Z,-4.20
2018-03-03T07:05:07.851Z,-4.20
2018-03-03T07:07:36.098Z,-4.20
2018-03-03T07:10:04.354Z,-4.20
2018-03-03T07:12:33.380Z,-4.20
2018-03-03T07:15:05.445Z,-4.30
2018-03-03T07:17:33.843Z,-4.30
2018-03-03T07:20:02.085Z,-4.20
2018-03-03T07:22:30.413Z,-4.20
2018-03-03T07:24:59.401Z,-4.20
2018-03-03T07:27:27.624Z,-4.20
2018-03-03T07:29:55.902Z,-4.30
2018-03-03T07:32:24.900Z,-4.30
2018-03-03T07:34:53.919Z,-4.20
2018-03-03T07:37:22.163Z,-4.30
2018-03-03T07:39:50.400Z,-4.20
2018-03-03T07:42:18.670Z,-4.20
2018-03-03T07:44:46.917Z,-4.10
2018-03-03T07:47:15.148Z,-4.10
2018-03-03T07:49:43.391Z,-4.00
2018-03-03T07:52:11.617Z,-4.10
2018-03-03T07:54:40.637Z,-4.00
2018-03-03T07:57:11.945Z,-4.10
2018-03-03T07:59:40.944Z,-3.90
2018-03-03T08:02:10.125Z,-3.80
2018-03-03T08:04:38.432Z,-3.80
2018-03-03T08:07:06.705Z,-3.70
2018-03-03T08:09:35.721Z,-3.70
2018-03-03T08:12:04.020Z,-3.70
2018-03-03T08:14:32.300Z,-3.60
2018-03-03T08:17:00.661Z,-3.60
2018-03-03T08:19:28.986Z,-3.60
2018-03-03T08:21:57.261Z,-3.60
2018-03-03T08:24:25.518Z,-3.60
2018-03-03T08:26:53.751Z,-3.50
2018-03-03T08:29:22.881Z,-3.50
2018-03-03T08:31:51.169Z,-3.40
2018-03-03T08:34:19.444Z,-3.40
2018-03-03T08:36:47.719Z,-3.40
2018-03-03T08:39:15.975Z,-3.40
2018-03-03T08:41:46.015Z,-3.40
2018-03-03T08:44:14.315Z,-3.50
2018-03-03T08:46:42.618Z,-3.30
2018-03-03T08:49:11.738Z,-3.30
2018-03-03T08:51:40.027Z,-3.30
2018-03-03T08:54:08.289Z,-3.20
2018-03-03T08:56:36.551Z,-3.30
2018-03-03T08:59:04.794Z,-3.30
2018-03-03T09:01:33.059Z,-3.30
2018-03-03T09:04:01.300Z,-3.20
2018-03-03T09:06:29.666Z,-3.20
2018-03-03T09:08:57.938Z,-3.20
2018-03-03T09:11:26.194Z,-3.10
2018-03-03T09:13:55.248Z,-2.90
2018-03-03T09:16:23.503Z,-2.90
2018-03-03T09:18:51.741Z,-2.90
2018-03-03T09:21:20.755Z,-2.90
2018-03-03T09:23:49.594Z,-2.90
2018-03-03T09:26:17.845Z,-2.90
2018-03-03T09:28:46.117Z,-2.90
2018-03-03T09:31:14.361Z,-3.00
2018-03-03T09:33:42.654Z,-3.00
2018-03-03T09:36:10.911Z,-3.00
2018-03-03T09:38:39.990Z,-2.90
2018-03-03T09:41:08.263Z,-2.90
2018-03-03T09:43:36.516Z,-2.80
2018-03-03T09:46:04.820Z,-2.70
2018-03-03T09:48:33.100Z,-2.70
2018-03-03T09:51:02.137Z,-2.60
2018-03-03T09:53:30.387Z,-2.60
2018-03-03T09:55:58.665Z,-2.50
2018-03-03T09:58:26.885Z,-2.50
2018-03-03T10:00:55.132Z,-2.60
2018-03-03T10:03:23.358Z,-2.60
2018-03-03T10:05:51.593Z,-2.50
2018-03-03T10:08:19.827Z,-2.50
2018-03-03T10:10:48.870Z,-2.40
2018-03-03T10:13:17.101Z,-2.40
2018-03-03T10:15:46.845Z,-2.20
2018-03-03T10:18:15.124Z,-2.20
2018-03-03T10:20:43.389Z,-2.10
2018-03-03T10:23:12.410Z,-2.20
2018-03-03T10:25:40.665Z,-2.20
2018-03-03T10:28:08.968Z,-2.10
2018-03-03T10:30:37.273Z,-2.10
2018-03-03T10:33:05.516Z,-2.10
2018-03-03T10:35:33.762Z,-2.00
2018-03-03T10:38:02.041Z,-1.90
2018-03-03T10:40:30.336Z,-1.90
2018-03-03T10:42:58.590Z,-1.90
2018-03-03T10:45:27.612Z,-1.90
2018-03-03T10:47:55.883Z,-1.90
2018-03-03T10:50:24.162Z,-1.90
2018-03-03T10:52:52.451Z,-1.80
2018-03-03T10:55:20.710Z,-1.80
2018-03-03T10:57:48.965Z,-1.80
2018-03-03T11:00:27.562Z,-1.70
2018-03-03T11:02:55.802Z,-1.80
2018-03-03T11:05:24.084Z,-1.70
2018-03-03T11:07:52.334Z,-1.70
2018-03-03T11:10:20.607Z,-1.70
2018-03-03T11:12:48.884Z,-1.70
2018-03-03T11:15:17.237Z,-1.70
2018-03-03T11:17:46.239Z,-1.50
2018-03-03T11:20:15.261Z,-1.50
2018-03-03T11:22:43.522Z,-1.50
2018-03-03T11:25:11.846Z,-1.60
2018-03-03T11:27:40.125Z,-1.60
2018-03-03T11:30:08.368Z,-1.60
2018-03-03T11:32:36.712Z,-1.50
2018-03-03T11:35:05.016Z,-1.40
2018-03-03T11:37:33.248Z,-1.30
2018-03-03T11:40:01.575Z,-1.30
2018-03-03T11:42:29.900Z,-1.30
2018-03-03T11:44:58.127Z,-1.30
2018-03-03T11:47:26.398Z,-1.30
2018-03-03T11:49:55.470Z,-1.20
2018-03-03T11:52:23.728Z,-1.30
2018-03-03T11:54:52.736Z,-1.10
2018-03-03T11:57:21.148Z,-1.10
2018-03-03T11:59:49.389Z,-1.00
2018-03-03T12:02:18.557Z,-0.80
2018-03-03T12:04:46.832Z,-0.90
2018-03-03T12:07:15.237Z,-0.70
2018-03-03T12:09:43.623Z,-0.70
2018-03-03T12:12:12.703Z,-0.80
2018-03-03T12:14:40.939Z,-0.80
2018-03-03T12:17:09.193Z,-0.80
2018-03-03T12:19:37.425Z,-0.80
2018-03-03T12:22:05.760Z,-0.70
2018-03-03T12:24:33.971Z,-0.70
2018-03-03T12:27:02.321Z,-0.70
2018-03-03T12:29:30.580Z,-0.70
2018-03-03T12:31:58.886Z,-0.70
2018-03-03T12:34:27.290Z,-0.70
2018-03-03T12:36:56.331Z,-0.60
2018-03-03T12:39:24.595Z,-0.70
2018-03-03T12:41:52.872Z,-0.60
2018-03-03T12:44:21.116Z,-0.50
2018-03-03T12:46:49.359Z,-0.50
2018-03-03T12:49:17.629Z,-0.50
2018-03-03T12:51:45.936Z,-0.40
2018-03-03T12:54:14.270Z,-0.40
2018-03-03T12:56:42.549Z,-0.40
2018-03-03T12:59:10.802Z,-0.30
2018-03-03T13:01:39.117Z,-0.30
2018-03-03T13:04:07.407Z,-0.30
2018-03-03T13:06:35.756Z,-0.30
2018-03-03T13:09:04.742Z,-0.30
2018-03-03T13:11:32.994Z,-0.40
2018-03-03T13:14:01.286Z,-0.30
2018-03-03T13:16:29.505Z,-0.30
2018-03-03T13:18:57.769Z,-0.20
2018-03-03T13:21:26.009Z,-0.20
2018-03-03T13:23:54.324Z,-0.20
2018-03-03T13:26:22.568Z,-0.20
2018-03-03T13:28:51.003Z,-0.20
2018-03-03T13:31:19.328Z,-0.20
2018-03-03T13:33:47.577Z,-0.20
2018-03-03T13:36:15.812Z,-0.20
2018-03-03T13:38:44.101Z,-0.20
2018-03-03T13:41:12.357Z,-0.10
2018-03-03T13:43:40.578Z,-0.10
2018-03-03T13:46:09.631Z,-0.10
2018-03-03T13:48:37.913Z,-0.10
2018-03-03T13:51:06.174Z,0.00
2018-03-03T13:53:34.418Z,0.10
2018-03-03T13:56:03.491Z,0.10
2018-03-03T13:58:32.538Z,0.20
2018-03-03T14:01:00.773Z,0.10
2018-03-03T14:03:29.808Z,0.20
2018-03-03T14:05:58.711Z,0.10
2018-03-03T14:08:27.081Z,0.10
2018-03-03T14:13:30.586Z,0.20
2018-03-03T14:15:58.856Z,0.30
2018-03-03T14:18:27.098Z,0.30
2018-03-03T14:20:55.405Z,0.30
2018-03-03T14:23:23.653Z,0.30
2018-03-03T14:25:51.927Z,0.40
2018-03-03T14:28:20.162Z,0.40
2018-03-03T14:30:48.397Z,0.40
2018-03-03T14:33:16.651Z,0.50
2018-03-03T14:35:44.934Z,0.50
2018-03-03T14:38:13.152Z,0.50
2018-03-03T14:40:41.401Z,0.50
2018-03-03T14:43:10.410Z,0.50
2018-03-03T14:45:38.656Z,0.50
2018-03-03T14:48:07.115Z,0.50
2018-03-03T14:50:35.367Z,0.50
2018-03-03T14:53:03.625Z,0.40
2018-03-03T14:55:31.882Z,0.50
2018-03-03T14:58:00.874Z,0.60
2018-03-03T15:00:29.888Z,0.60
2018-03-03T15:02:58.148Z,0.60
2018-03-03T15:05:27.147Z,0.50
2018-03-03T15:07:55.369Z,0.50
2018-03-03T15:10:23.602Z,0.50
2018-03-03T15:12:51.858Z,0.60
2018-03-03T15:15:20.843Z,0.50
2018-03-03T15:17:49.083Z,0.50
2018-03-03T15:20:17.312Z,0.50
2018-03-03T15:22:46.302Z,0.50
2018-03-03T15:25:15.297Z,0.60
2018-03-03T15:27:44.348Z,0.60
2018-03-03T15:30:13.304Z,0.60
2018-03-03T15:32:41.946Z,0.50
2018-03-03T15:35:10.210Z,0.60
2018-03-03T15:37:38.488Z,0.60
2018-03-03T15:40:06.762Z,0.50
2018-03-03T15:42:34.982Z,0.60
2018-03-03T15:45:03.279Z,0.60
2018-03-03T15:47:32.237Z,0.60
2018-03-03T15:50:01.262Z,0.60
2018-03-03T15:52:29.647Z,0.60
2018-03-03T15:54:57.973Z,0.60
2018-03-03T15:57:27.228Z,0.60
2018-03-03T15:59:55.442Z,0.70
2018-03-03T16:02:23.672Z,0.80
2018-03-03T16:04:51.980Z,0.80
2018-03-03T16:07:20.188Z,0.80
2018-03-03T16:09:49.221Z,0.70
2018-03-03T16:12:17.478Z,0.70
2018-03-03T16:14:47.252Z,0.70
2018-03-03T16:17:15.487Z,0.60
2018-03-03T16:19:43.761Z,0.70
2018-03-03T16:22:12.789Z,0.70
2018-03-03T16:24:41.052Z,0.60
2018-03-03T16:27:09.273Z,0.60
2018-03-03T16:29:37.654Z,0.60
2018-03-03T16:32:05.845Z,0.60
2018-03-03T16:34:34.069Z,0.60
2018-03-03T16:37:02.336Z,0.60
2018-03-03T16:39:30.574Z,0.60
2018-03-03T16:41:58.802Z,0.60
2018-03-03T16:44:27.150Z,0.70
2018-03-03T16:46:55.393Z,0.70
2018-03-03T16:49:23.609Z,0.60
2018-03-03T16:51:51.862Z,0.60
2018-03-03T16:54:20.086Z,0.60
2018-03-03T16:56:48.354Z,0.60
2018-03-03T16:59:16.611Z,0.60
2018-03-03T17:01:44.871Z,0.60
2018-03-03T17:04:13.120Z,0.60
2018-03-03T17:06:42.151Z,0.50
2018-03-03T17:09:10.401Z,0.50
2018-03-03T17:11:38.845Z,0.50
2018-03-03T17:14:07.144Z,0.50
2018-03-03T17:16:35.372Z,0.50
2018-03-03T17:19:04.181Z,0.50
2018-03-03T17:21:34.041Z,0.40
2018-03-03T17:24:02.314Z,0.40
2018-03-03T17:26:30.602Z,0.40
2018-03-03T17:28:58.957Z,0.50
2018-03-03T17:31:27.191Z,0.40
2018-03-03T17:33:55.473Z,0.40
2018-03-03T17:36:23.713Z,0.40
2018-03-03T17:38:51.998Z,0.40
2018-03-03T17:41:20.265Z,0.30
2018-03-03T17:43:48.561Z,0.30
2018-03-03T17:46:16.823Z,0.30
2018-03-03T17:48:45.065Z,0.30
2018-03-03T17:51:13.870Z,0.20
2018-03-03T17:53:42.129Z,0.30
2018-03-03T17:56:11.157Z,0.30
2018-03-03T17:58:39.405Z,0.30
2018-03-03T18:01:07.628Z,0.30
2018-03-03T18:03:35.885Z,0.30
2018-03-03T18:06:04.150Z,0.40
2018-03-03T18:08:33.242Z,0.40
2018-03-03T18:11:01.562Z,0.40
2018-03-03T18:13:32.337Z,0.40
2018-03-03T18:16:00.599Z,0.40
2018-03-03T18:18:31.745Z,0.40
2018-03-03T18:20:59.984Z,0.40
2018-03-03T18:23:28.232Z,0.40
2018-03-03T18:25:56.493Z,0.30
2018-03-03T18:28:25.533Z,0.40
2018-03-03T18:30:53.850Z,0.30
2018-03-03T18:33:22.114Z,0.30
2018-03-03T18:35:50.383Z,0.30
2018-03-03T18:38:18.628Z,0.20
2018-03-03T18:40:46.866Z,0.20
2018-03-03T18:43:15.898Z,0.20
2018-03-03T18:45:44.149Z,0.20
2018-03-03T18:48:12.377Z,0.20
2018-03-03T18:50:40.659Z,0.20
2018-03-03T18:53:08.859Z,0.20
2018-03-03T18:55:37.883Z,0.20
2018-03-03T18:58:06.174Z,0.20
2018-03-03T19:00:34.416Z,0.30
2018-03-03T19:03:03.540Z,0.30
2018-03-03T19:05:31.750Z,0.20
2018-03-03T19:07:59.969Z,0.20
2018-03-03T19:10:28.971Z,0.10
2018-03-03T19:12:57.268Z,0.10
2018-03-03T19:15:25.514Z,0.10
2018-03-03T19:17:54.526Z,0.20
2018-03-03T19:20:22.829Z,0.10
2018-03-03T19:22:51.064Z,0.10
2018-03-03T19:25:19.292Z,0.10
2018-03-03T19:27:48.298Z,0.10
2018-03-03T19:30:16.588Z,0.10
2018-03-03T19:32:44.847Z,0.10
2018-03-03T19:35:13.082Z,0.00
2018-03-03T19:37:41.358Z,0.00
2018-03-03T19:40:09.592Z,0.00
2018-03-03T19:42:37.920Z,0.00
2018-03-03T19:45:06.152Z,0.00
2018-03-03T19:47:35.194Z,0.00
2018-03-03T19:50:03.422Z,-0.10
2018-03-03T19:52:32.567Z,-0.10
2018-03-03T19:55:01.571Z,-0.20
2018-03-03T19:57:29.825Z,-0.10
2018-03-03T19:59:58.084Z,-0.10
2018-03-03T20:02:26.361Z,-0.10
2018-03-03T20:04:55.376Z,-0.10
2018-03-03T20:07:24.372Z,-0.10
2018-03-03T20:09:52.637Z,-0.20
2018-03-03T20:12:20.890Z,-0.10
2018-03-03T20:14:49.907Z,-0.20
2018-03-03T20:17:18.234Z,-0.20
2018-03-03T20:19:46.499Z,-0.20
2018-03-03T20:22:14.771Z,-0.20
2018-03-03T20:24:43.272Z,-0.30
2018-03-03T20:27:11.515Z,-0.30
2018-03-03T20:29:39.839Z,-0.30
2018-03-03T20:32:08.116Z,-0.30
2018-03-03T20:34:37.141Z,-0.40
2018-03-03T20:37:05.382Z,-0.50
2018-03-03T20:39:34.411Z,-0.50
2018-03-03T20:42:02.698Z,-0.50
2018-03-03T20:44:30.930Z,-0.50
2018-03-03T20:46:59.930Z,-0.50
2018-03-03T20:49:28.966Z,-0.50
2018-03-03T20:51:57.254Z,-0.50
2018-03-03T20:54:25.523Z,-0.50
2018-03-03T20:56:53.793Z,-0.50
2018-03-03T20:59:22.022Z,-0.60
2018-03-03T21:01:50.262Z,-0.60
2018-03-03T21:04:18.532Z,-0.60
2018-03-03T21:06:46.768Z,-0.60
2018-03-03T21:09:15.785Z,-0.70
2018-03-03T21:11:44.903Z,-0.80
2018-03-03T21:14:13.150Z,-0.80
2018-03-03T21:16:42.151Z,-0.70
2018-03-03T21:19:10.397Z,-0.80
2018-03-03T21:21:39.423Z,-0.60
2018-03-03T21:24:07.699Z,-0.70
2018-03-03T21:26:36.692Z,-0.80
2018-03-03T21:29:04.988Z,-0.80
2018-03-03T21:31:33.233Z,-0.70
2018-03-03T21:34:01.462Z,-0.80
2018-03-03T21:36:29.757Z,-0.80
2018-03-03T21:38:57.998Z,-0.80
2018-03-03T21:41:26.225Z,-0.90
2018-03-03T21:43:55.345Z,-0.80
2018-03-03T21:46:23.659Z,-0.90
2018-03-03T21:48:52.007Z,-0.80
2018-03-03T21:51:20.275Z,-0.80
2018-03-03T21:53:48.543Z,-0.80
2018-03-03T21:56:16.756Z,-0.80
2018-03-03T21:58:45.017Z,-0.80
2018-03-03T22:01:13.249Z,-0.90
2018-03-03T22:03:42.251Z,-0.90
2018-03-03T22:06:11.265Z,-0.90
2018-03-03T22:08:39.557Z,-1.00
2018-03-03T22:11:07.813Z,-0.90
2018-03-03T22:13:36.041Z,-0.90
2018-03-03T22:16:04.302Z,-1.00
2018-03-03T22:18:32.568Z,-1.10
2018-03-03T22:21:00.784Z,-1.10
2018-03-03T22:23:29.792Z,-1.10
2018-03-03T22:25:58.811Z,-1.10
2018-03-03T22:28:27.048Z,-1.10
2018-03-03T22:30:55.314Z,-1.10
2018-03-03T22:33:23.580Z,-1.10
2018-03-03T22:35:51.810Z,-1.00
2018-03-03T22:38:20.047Z,-1.00
2018-03-03T22:40:48.300Z,-1.00
2018-03-03T22:43:16.531Z,-1.00
2018-03-03T22:45:44.778Z,-1.00
2018-03-03T22:48:13.054Z,-1.10
2018-03-03T22:50:42.065Z,-1.20
2018-03-03T22:53:11.072Z,-1.20
2018-03-03T22:55:39.304Z,-1.30
2018-03-03T22:58:07.611Z,-1.20
2018-03-03T23:00:35.796Z,-1.20
2018-03-03T23:03:04.017Z,-1.10
2018-03-03T23:05:32.271Z,-1.10
2018-03-03T23:08:00.506Z,-1.10
2018-03-03T23:10:29.624Z,-1.20
2018-03-03T23:12:57.877Z,-1.20
2018-03-03T23:15:26.869Z,-1.10
2018-03-03T23:17:55.122Z,-1.10
2018-03-03T23:20:23.382Z,-1.10
2018-03-03T23:22:51.633Z,-1.10
2018-03-03T23:25:19.878Z,-1.10
2018-03-03T23:27:48.873Z,-1.00
2018-03-03T23:30:17.885Z,-1.00
2018-03-03T23:32:46.138Z,-1.10
2018-03-03T23:35:14.360Z,-1.10
2018-03-03T23:37:42.605Z,-1.10
2018-03-03T23:40:11.603Z,-1.10
2018-03-03T23:42:39.853Z,-1.10
2018-03-03T23:45:08.081Z,-1.10
2018-03-03T23:47:36.357Z,-1.30
2018-03-03T23:50:04.592Z,-1.30
2018-03-03T23:52:33.724Z,-1.40
2018-03-03T23:55:01.954Z,-1.50
2018-03-03T23:57:30.954Z,-1.50
2018-03-03T23:59:59.964Z,-1.50
